Time;durP1;ratioP1;P1;durP2;ratioP2;P2;SDS_P1;SDS_P2;PMS_P1;PMS_P2;Temp;Humidity;BMP_temperature;BMP_pressure;BME280_temperature;BME280_humidity;BME280_pressure;Samples;Min_cycle;Max_cycle;Signal;HPM_P1;HPM_P2
2022/03/11 00:02:16;;;;;;;12.23;7.20;;;;;;;-1.17;100.00;101204.44;5039448;28;20049;-69
2022/03/11 00:04:42;;;;;;;11.13;7.18;;;;;;;-1.05;100.00;101206.59;5050248;28;20029;-69
2022/03/11 00:07:08;;;;;;;10.98;6.97;;;;;;;-1.06;100.00;101205.72;5050523;28;20041;-67
2022/03/11 00:09:34;;;;;;;11.50;7.45;;;;;;;-1.19;100.00;101206.03;5051477;28;20024;-68
2022/03/11 00:11:59;;;;;;;11.32;7.10;;;;;;;-1.14;100.00;101208.69;5054027;28;20021;-70
2022/03/11 00:14:25;;;;;;;10.02;7.15;;;;;;;-1.15;100.00;101207.00;5035689;28;20082;-70
2022/03/11 00:16:50;;;;;;;11.32;7.20;;;;;;;-1.19;100.00;101210.19;5053839;28;20035;-69
2022/03/11 00:19:16;;;;;;;11.93;7.28;;;;;;;-1.39;100.00;101181.13;5053435;28;20025;-69
2022/03/11 00:21:41;;;;;;;10.40;7.13;;;;;;;-1.19;100.00;101210.19;5053335;28;20021;-68
2022/03/11 00:24:07;;;;;;;11.82;6.88;;;;;;;-1.02;100.00;101217.53;5053319;28;20032;-70
2022/03/11 00:26:34;;;;;;;10.93;7.13;;;;;;;-1.10;100.00;101206.41;5053411;28;20021;-70
2022/03/11 00:29:00;;;;;;;10.65;7.30;;;;;;;-1.11;100.00;101196.38;5053649;28;20021;-69
2022/03/11 00:31:27;;;;;;;10.60;6.93;;;;;;;-1.16;100.00;101212.78;5053390;28;20047;-69
2022/03/11 00:33:53;;;;;;;10.88;6.50;;;;;;;-1.09;100.00;101225.53;5053436;28;20025;-70
2022/03/11 00:36:19;;;;;;;9.48;6.35;;;;;;;-1.33;100.00;101187.22;5035507;28;20410;-70
2022/03/11 00:38:44;;;;;;;10.23;6.93;;;;;;;-1.13;100.00;101226.22;5035971;28;20025;-70
2022/03/11 00:41:10;;;;;;;10.50;7.03;;;;;;;-1.35;100.00;101187.94;5053905;28;20032;-70
2022/03/11 00:43:35;;;;;;;9.05;6.43;;;;;;;-1.31;100.00;101214.69;5053301;28;20033;-68
2022/03/11 00:46:00;;;;;;;8.70;6.47;;;;;;;-1.50;100.00;101193.16;5053447;28;20041;-68
2022/03/11 00:48:26;;;;;;;9.10;6.30;;;;;;;-1.27;100.00;101184.09;5053421;28;20470;-70
2022/03/11 00:50:51;;;;;;;9.98;6.60;;;;;;;-1.35;100.00;101218.72;5035217;28;20029;-70
2022/03/11 00:53:17;;;;;;;9.48;5.82;;;;;;;-1.44;100.00;101220.81;5035838;28;20494;-69
2022/03/11 00:55:42;;;;;;;9.73;6.57;;;;;;;-1.21;100.00;101226.72;5068889;28;20123;-69
2022/03/11 00:58:08;;;;;;;11.07;7.10;;;;;;;-1.50;100.00;101220.56;5053385;28;20474;-69
2022/03/11 01:03:08;;;;;;;12.55;7.93;;;;;;;-1.51;100.00;101211.41;4636580;22;10000147;-71
2022/03/11 01:05:34;;;;;;;11.77;6.70;;;;;;;-1.38;100.00;101213.59;5038100;28;20030;-69
2022/03/11 01:07:59;;;;;;;9.50;6.63;;;;;;;-1.85;100.00;101158.50;5051972;28;20029;-70
2022/03/11 01:10:25;;;;;;;10.55;6.45;;;;;;;-1.81;100.00;101216.00;5063665;28;20540;-70
2022/03/11 01:12:51;;;;;;;10.75;6.95;;;;;;;-1.83;100.00;101202.63;5072777;28;20020;-69
2022/03/11 01:15:16;;;;;;;10.65;6.38;;;;;;;-1.72;100.00;101210.53;5072907;28;20033;-69
2022/03/11 01:17:42;;;;;;;12.00;7.05;;;;;;;-2.14;100.00;101189.66;5073145;28;20032;-70
2022/03/11 01:20:10;;;;;;;8.98;6.10;;;;;;;-2.05;100.00;101182.59;5054164;28;20060;-71
2022/03/11 01:22:35;;;;;;;9.60;5.72;;;;;;;-1.96;100.00;101202.06;5072826;28;20028;-70
2022/03/11 01:25:01;;;;;;;10.32;6.60;;;;;;;-2.03;100.00;101185.16;5057315;28;20031;-70
2022/03/11 01:27:26;;;;;;;9.43;6.22;;;;;;;-1.70;100.00;101208.13;5052707;28;20413;-69
2022/03/11 01:29:52;;;;;;;9.70;6.35;;;;;;;-2.03;100.00;101218.38;5052469;28;20462;-69
2022/03/11 01:32:17;;;;;;;10.82;6.72;;;;;;;-1.54;100.00;101216.25;5053080;28;20025;-70
2022/03/11 01:34:43;;;;;;;10.50;6.28;;;;;;;-1.99;100.00;101190.31;5052883;28;20502;-69
2022/03/11 01:37:08;;;;;;;9.55;6.63;;;;;;;-1.84;100.00;101228.31;5052438;28;20518;-70
2022/03/11 01:39:34;;;;;;;9.02;6.20;;;;;;;-2.44;100.00;101195.84;5052748;28;20051;-69
2022/03/11 01:41:59;;;;;;;10.02;6.70;;;;;;;-2.15;100.00;101234.44;5034298;28;20033;-68
2022/03/11 01:44:25;;;;;;;9.25;6.05;;;;;;;-1.98;100.00;101226.88;5051807;28;20478;-69
2022/03/11 01:46:51;;;;;;;11.98;6.35;;;;;;;-1.70;100.00;101233.88;5052374;28;20128;-70
2022/03/11 01:49:17;;;;;;;12.13;7.38;;;;;;;-1.95;100.00;101241.13;5052706;28;20033;-70
2022/03/11 01:51:43;;;;;;;11.45;7.07;;;;;;;-2.25;100.00;101228.22;5034540;28;20037;-69
2022/03/11 01:54:09;;;;;;;12.93;7.45;;;;;;;-2.02;100.00;101230.03;5028515;28;20025;-70
2022/03/11 01:56:37;;;;;;;12.05;6.78;;;;;;;-1.95;100.00;101226.16;5031971;28;20044;-70
2022/03/11 01:59:03;;;;;;;10.23;6.72;;;;;;;-2.38;100.00;101203.59;5032299;28;20029;-70
2022/03/11 02:01:29;;;;;;;9.63;6.63;;;;;;;-2.23;100.00;101189.28;5032016;28;20086;-67
2022/03/11 02:03:57;;;;;;;9.98;6.32;;;;;;;-2.10;100.00;101225.53;5012280;28;20046;-69
2022/03/11 02:06:23;;;;;;;8.10;5.60;;;;;;;-2.06;100.00;101228.19;5015585;28;20041;-70
2022/03/11 02:08:50;;;;;;;9.80;6.68;;;;;;;-1.77;100.00;101224.44;5032137;28;20509;-70
2022/03/11 02:11:15;;;;;;;9.60;6.20;;;;;;;-2.44;100.00;101170.97;5031893;28;20041;-69
2022/03/11 02:13:49;;;;;;;11.18;6.32;;;;;;;-2.37;100.00;101217.72;5032130;28;20484;-70
2022/03/11 02:16:22;;;;;;;9.75;6.38;;;;;;;-2.32;100.00;101206.34;5031842;28;20040;-69
2022/03/11 02:18:48;;;;;;;8.30;6.00;;;;;;;-2.61;100.00;101180.97;5031814;28;20037;-70
2022/03/11 02:21:17;;;;;;;11.10;6.80;;;;;;;-2.27;100.00;101216.47;5031629;28;20585;-70
2022/03/11 02:23:44;;;;;;;8.93;6.05;;;;;;;-2.13;100.00;101210.44;5013866;28;20172;-70
2022/03/11 02:26:10;;;;;;;9.98;6.32;;;;;;;-2.20;100.00;101223.44;5031852;28;20095;-69
2022/03/11 02:28:35;;;;;;;10.02;6.28;;;;;;;-2.35;100.00;101233.56;5031933;28;20029;-70
2022/03/11 02:31:01;;;;;;;9.13;6.35;;;;;;;-2.49;100.00;101244.56;5031542;28;20041;-69
2022/03/11 02:33:27;;;;;;;10.27;6.00;;;;;;;-2.56;100.00;101234.25;5013868;28;20033;-69
2022/03/11 02:35:53;;;;;;;10.32;6.47;;;;;;;-2.46;100.00;101219.81;5014227;28;20116;-69
2022/03/11 02:38:18;;;;;;;9.07;6.00;;;;;;;-2.63;100.00;101248.91;5031204;28;20021;-69
2022/03/11 02:40:43;;;;;;;10.05;6.57;;;;;;;-2.40;100.00;101252.44;5031175;28;20132;-70
2022/03/11 02:43:09;;;;;;;11.77;6.25;;;;;;;-2.48;100.00;101241.31;5014018;28;20021;-70
2022/03/11 02:45:35;;;;;;;9.45;6.18;;;;;;;-2.45;100.00;101253.00;5013905;28;20973;-70
2022/03/11 02:48:00;;;;;;;9.32;5.90;;;;;;;-2.45;100.00;101261.31;5031692;28;20031;-69
2022/03/11 02:50:25;;;;;;;10.20;5.60;;;;;;;-2.50;100.00;101252.81;5013661;28;20033;-70
2022/03/11 02:52:51;;;;;;;9.05;6.00;;;;;;;-2.71;100.00;101262.66;5031461;28;20037;-69
2022/03/11 02:55:16;;;;;;;8.73;5.82;;;;;;;-2.65;100.00;101267.03;5030908;28;20036;-70
2022/03/11 02:57:42;;;;;;;9.23;5.82;;;;;;;-2.72;100.00;101270.91;5030968;28;20038;-70
2022/03/11 03:00:08;;;;;;;9.68;6.50;;;;;;;-2.82;100.00;101267.91;5013088;28;20045;-69
2022/03/11 03:02:33;;;;;;;10.75;6.30;;;;;;;-2.65;100.00;101270.38;5030899;28;20422;-69
2022/03/11 03:04:58;;;;;;;10.70;6.00;;;;;;;-2.80;100.00;101273.81;5031113;28;20033;-69
2022/03/11 03:07:24;;;;;;;8.63;5.82;;;;;;;-2.81;100.00;101249.72;5030956;28;20039;-68
2022/03/11 03:09:49;;;;;;;11.43;6.72;;;;;;;-2.74;100.00;101281.56;5012802;28;20116;-69
2022/03/11 03:12:15;;;;;;;9.48;5.50;;;;;;;-2.75;100.00;101279.84;5038434;28;20040;-68
2022/03/11 03:14:40;;;;;;;9.40;6.20;;;;;;;-2.46;100.00;101284.53;5050792;28;20032;-69
2022/03/11 03:17:06;;;;;;;9.35;6.00;;;;;;;-2.81;100.00;101282.03;5045828;28;20025;-70
2022/03/11 03:19:31;;;;;;;9.43;6.07;;;;;;;-3.02;100.00;101257.06;5031160;28;20040;-69
2022/03/11 03:21:57;;;;;;;11.38;7.18;;;;;;;-2.67;100.00;101278.56;5030597;28;20095;-70
2022/03/11 03:24:22;;;;;;;12.43;6.65;;;;;;;-2.86;100.00;101290.94;5039600;28;20132;-69
2022/03/11 03:26:48;;;;;;;11.38;6.65;;;;;;;-3.19;100.00;101262.84;5050786;28;20032;-69
2022/03/11 03:29:13;;;;;;;8.95;6.05;;;;;;;-3.03;100.00;101291.78;5050373;28;20036;-68
2022/03/11 03:31:39;;;;;;;9.63;5.93;;;;;;;-2.76;100.00;101298.06;5051030;28;20025;-70
2022/03/11 03:34:04;;;;;;;9.93;6.10;;;;;;;-3.08;100.00;101289.09;5050660;28;20029;-69
2022/03/11 03:36:29;;;;;;;8.95;6.07;;;;;;;-3.08;100.00;101294.06;5031995;28;20033;-66
2022/03/11 03:38:55;;;;;;;11.23;6.30;;;;;;;-3.31;100.00;101278.81;5037464;28;20033;-69
2022/03/11 03:41:20;;;;;;;7.88;5.50;;;;;;;-3.16;100.00;101265.50;5034461;28;20026;-67
2022/03/11 03:43:46;;;;;;;10.23;6.75;;;;;;;-3.06;100.00;101304.06;5051806;28;20071;-69
2022/03/11 03:46:11;;;;;;;9.13;6.38;;;;;;;-2.95;100.00;101306.28;5054773;28;20110;-69
2022/03/11 03:48:37;;;;;;;8.70;5.72;;;;;;;-3.15;100.00;101303.66;5054598;28;20556;-69
2022/03/11 03:51:04;;;;;;;9.80;6.03;;;;;;;-2.94;100.00;101302.16;5054380;28;20132;-69
2022/03/11 03:53:29;;;;;;;8.73;5.88;;;;;;;-3.21;100.00;101288.44;5054707;28;20029;-69
2022/03/11 03:55:55;;;;;;;9.57;6.03;;;;;;;-3.34;100.00;101262.13;5054808;28;20033;-68
2022/03/11 03:58:20;;;;;;;10.65;6.47;;;;;;;-3.38;100.00;101267.72;5054170;28;20045;-69
2022/03/11 04:00:46;;;;;;;10.18;5.85;;;;;;;-3.25;100.00;101301.50;5054576;28;20120;-69
2022/03/11 04:03:11;;;;;;;8.80;5.43;;;;;;;-3.36;100.00;101286.06;5050537;28;20472;-69
2022/03/11 04:05:37;;;;;;;10.70;6.40;;;;;;;-3.39;100.00;101280.94;5043301;28;20479;-69
2022/03/11 04:08:03;;;;;;;10.23;6.43;;;;;;;-3.60;100.00;101248.44;5054245;28;20090;-68
2022/03/11 04:10:28;;;;;;;9.93;6.28;;;;;;;-2.95;100.00;101303.78;5054333;28;20494;-70
2022/03/11 04:12:54;;;;;;;10.10;6.22;;;;;;;-3.01;100.00;101310.13;5053944;28;20068;-69
2022/03/11 04:15:20;;;;;;;9.45;6.03;;;;;;;-3.29;100.00;101300.50;5054090;28;20028;-70
2022/03/11 04:17:46;;;;;;;9.57;5.72;;;;;;;-3.25;100.00;101313.91;5053609;28;20036;-69
2022/03/11 04:20:11;;;;;;;9.00;5.90;;;;;;;-3.60;100.00;101268.31;5035642;28;20043;-69
2022/03/11 04:22:44;;;;;;;10.60;6.30;;;;;;;-3.76;100.00;101292.31;5053875;28;20024;-70
2022/03/11 04:25:12;;;;;;;11.73;6.50;;;;;;;-3.66;100.00;101294.47;5054136;28;20025;-70
2022/03/11 04:27:38;;;;;;;9.05;6.30;;;;;;;-3.65;100.00;101269.75;5053942;28;20396;-69
2022/03/11 04:30:04;;;;;;;9.32;6.22;;;;;;;-3.45;100.00;101294.69;5053803;28;20029;-64
2022/03/11 04:32:30;;;;;;;9.23;5.93;;;;;;;-3.57;100.00;101315.69;5053885;28;20017;-69
2022/03/11 04:34:55;;;;;;;10.80;6.25;;;;;;;-3.68;100.00;101294.41;5053970;28;20407;-68
2022/03/11 04:37:21;;;;;;;10.43;6.47;;;;;;;-3.74;100.00;101275.84;5053417;28;20028;-69
2022/03/11 04:39:46;;;;;;;10.80;6.90;;;;;;;-3.48;100.00;101332.66;5053495;28;20053;-69
2022/03/11 04:42:12;;;;;;;10.70;6.75;;;;;;;-3.50;100.00;101299.44;5053428;28;20029;-69
2022/03/11 04:44:37;;;;;;;11.27;6.93;;;;;;;-3.59;100.00;101307.31;5035776;28;20414;-70
2022/03/11 04:47:04;;;;;;;9.77;6.05;;;;;;;-3.66;100.00;101299.44;5034257;28;20037;-70
2022/03/11 04:49:30;;;;;;;11.18;6.82;;;;;;;-3.38;100.00;101331.47;5053387;28;20178;-69
2022/03/11 04:51:55;;;;;;;11.07;6.85;;;;;;;-3.64;100.00;101288.81;5033468;28;20116;-69
2022/03/11 04:54:21;;;;;;;13.43;7.85;;;;;;;-3.33;100.00;101281.25;5031622;28;20036;-69
2022/03/11 04:56:46;;;;;;;11.55;7.20;;;;;;;-3.48;100.00;101324.34;5032171;28;20121;-70
2022/03/11 04:59:12;;;;;;;11.25;6.78;;;;;;;-3.40;100.00;101318.13;5033652;28;20502;-70
2022/03/11 05:01:37;;;;;;;10.90;7.28;;;;;;;-3.33;100.00;101328.47;5033272;28;20025;-70
2022/03/11 05:04:03;;;;;;;13.00;7.43;;;;;;;-3.43;100.00;101293.13;5033685;28;20057;-69
2022/03/11 05:06:28;;;;;;;13.35;7.28;;;;;;;-3.33;100.00;101335.91;5033290;28;20030;-71
2022/03/11 05:08:53;;;;;;;12.10;7.28;;;;;;;-2.86;100.00;101319.16;5033395;28;20033;-69
2022/03/11 05:11:19;;;;;;;12.63;7.90;;;;;;;-3.19;100.00;101294.34;5035461;28;20048;-68
2022/03/11 05:13:45;;;;;;;12.65;7.35;;;;;;;-2.74;100.00;101321.38;5072759;28;20029;-68
2022/03/11 05:16:10;;;;;;;12.50;7.18;;;;;;;-1.86;100.00;101322.06;5072647;28;20029;-68
2022/03/11 05:18:36;;;;;;;15.23;7.97;;;;;;;-0.94;91.24;101272.69;5072479;28;20040;-69
2022/03/11 05:21:01;;;;;;;13.85;7.93;;;;;;;-1.09;86.78;101282.91;5052811;28;20494;-69
2022/03/11 05:23:26;;;;;;;12.27;7.32;;;;;;;-1.39;86.30;101291.69;5052236;28;20059;-69
2022/03/11 05:25:52;;;;;;;12.05;7.82;;;;;;;0.28;77.67;101313.88;5052405;28;20487;-69
2022/03/11 05:28:18;;;;;;;11.77;7.20;;;;;;;-0.20;79.54;101288.81;5046954;28;20025;-66
2022/03/11 05:30:43;;;;;;;11.88;7.57;;;;;;;0.35;75.36;101278.28;5068604;28;20056;-70
2022/03/11 05:33:09;;;;;;;13.52;8.15;;;;;;;0.82;71.50;101305.72;5056088;28;20102;-70
2022/03/11 05:35:34;;;;;;;14.13;8.20;;;;;;;1.47;66.46;101306.09;5047083;28;20036;-71
2022/03/11 05:38:00;;;;;;;15.07;7.90;;;;;;;0.79;66.56;101285.59;5032395;28;20040;-71
2022/03/11 05:40:26;;;;;;;16.27;7.93;;;;;;;5.02;100.00;101276.56;5052700;28;20104;-70
2022/03/11 05:42:51;;;;;;;12.07;7.38;;;;;;;0.25;72.98;101303.75;5068828;28;20024;-70
2022/03/11 05:45:17;;;;;;;16.83;10.25;;;;;;;-0.52;74.02;101314.28;5052705;28;20029;-71
2022/03/11 05:47:43;;;;;;;14.07;8.23;;;;;;;-1.31;79.50;101316.94;5051498;28;20025;-71
2022/03/11 05:50:09;;;;;;;11.20;7.03;;;;;;;-1.45;80.78;101293.06;5032579;28;20076;-70
2022/03/11 05:52:36;;;;;;;11.63;6.72;;;;;;;-1.90;81.48;101316.88;5051645;28;20033;-71
2022/03/11 05:55:02;;;;;;;13.07;7.18;;;;;;;-1.92;78.62;101309.34;5052435;28;20033;-71
2022/03/11 05:57:28;;;;;;;13.52;6.88;;;;;;;-1.27;77.54;101304.63;5051759;28;20029;-72
2022/03/11 05:59:53;;;;;;;13.30;7.32;;;;;;;-1.69;77.28;101319.44;5052413;28;20155;-71
2022/03/11 06:02:19;;;;;;;15.80;7.70;;;;;;;-1.29;75.15;101290.41;5034260;28;20095;-70
2022/03/11 06:04:44;;;;;;;15.32;8.65;;;;;;;-1.46;74.89;101283.88;5051250;28;20138;-70
2022/03/11 06:07:10;;;;;;;12.05;7.10;;;;;;;-1.21;73.42;101314.00;5052219;28;20029;-65
2022/03/11 06:09:35;;;;;;;12.18;7.15;;;;;;;-1.20;72.05;101320.69;5052026;28;20036;-69
2022/03/11 06:12:01;;;;;;;12.35;7.03;;;;;;;-0.75;68.16;101311.69;5031604;28;20027;-71
2022/03/11 06:14:26;;;;;;;14.13;7.55;;;;;;;-0.77;66.67;101324.09;5031887;28;20030;-71
2022/03/11 06:16:52;;;;;;;14.63;7.65;;;;;;;-1.36;66.05;101341.66;5031987;28;20045;-71
2022/03/11 06:19:17;;;;;;;15.52;7.90;;;;;;;-1.15;67.05;101294.31;5032228;28;20034;-69
2022/03/11 06:21:43;;;;;;;13.88;7.28;;;;;;;-1.31;65.37;101340.22;5031733;28;20499;-71
2022/03/11 06:24:08;;;;;;;11.35;5.80;;;;;;;-1.21;64.54;101316.50;5032402;28;20052;-71
2022/03/11 06:26:33;;;;;;;17.17;7.85;;;;;;;-0.94;65.32;101313.47;5031546;28;20029;-70
2022/03/11 06:28:59;;;;;;;14.85;7.53;;;;;;;-0.65;63.42;101344.53;5031559;28;20037;-70
2022/03/11 06:31:25;;;;;;;18.13;8.52;;;;;;;-0.92;63.94;101306.91;5032196;28;20029;-70
2022/03/11 06:33:51;;;;;;;20.42;9.00;;;;;;;-0.59;61.67;101286.50;5031101;28;20033;-69
2022/03/11 06:36:16;;;;;;;16.58;7.65;;;;;;;-0.38;62.20;101345.63;5031485;28;20384;-70
2022/03/11 06:38:42;;;;;;;16.42;8.57;;;;;;;-0.75;62.97;101334.16;5031899;28;20108;-71
2022/03/11 06:41:08;;;;;;;16.83;8.38;;;;;;;-0.56;63.46;101316.59;5031649;28;20040;-70
2022/03/11 06:43:34;;;;;;;18.98;8.80;;;;;;;-0.88;63.93;101310.38;5032149;28;20403;-71
2022/03/11 06:45:59;;;;;;;15.18;7.53;;;;;;;-1.26;62.47;101312.97;5031689;28;20056;-71
2022/03/11 06:48:25;;;;;;;13.90;7.15;;;;;;;-0.06;62.64;101335.16;5031287;28;20138;-71
2022/03/11 06:50:50;;;;;;;10.90;6.30;;;;;;;0.11;62.91;101328.28;5031514;28;20029;-71
2022/03/11 06:53:17;;;;;;;16.13;6.95;;;;;;;0.29;61.92;101355.56;5031407;28;20100;-70
2022/03/11 06:55:43;;;;;;;15.52;7.30;;;;;;;-0.49;61.00;101354.34;5031460;28;20103;-70
2022/03/11 06:58:08;;;;;;;14.05;7.57;;;;;;;0.47;59.26;101318.72;5031592;28;20065;-71
2022/03/11 07:00:34;;;;;;;13.60;7.70;;;;;;;0.63;60.18;101340.94;5029894;28;20148;-69
2022/03/11 07:03:01;;;;;;;13.38;7.25;;;;;;;0.84;58.57;101350.00;5018803;28;20038;-69
2022/03/11 07:05:27;;;;;;;11.23;6.95;;;;;;;-0.43;58.17;101338.72;5011127;28;20443;-70
2022/03/11 07:07:52;;;;;;;11.75;6.72;;;;;;;1.07;57.07;101358.25;4993767;28;20041;-69
2022/03/11 07:10:19;;;;;;;12.85;7.88;;;;;;;0.90;56.84;101341.84;5011263;28;20083;-69
2022/03/11 07:12:45;;;;;;;9.65;5.90;;;;;;;0.31;56.95;101354.84;5011235;28;20116;-67
2022/03/11 07:15:10;;;;;;;12.27;6.28;;;;;;;0.32;55.68;101346.53;5011561;28;20140;-71
2022/03/11 07:17:37;;;;;;;14.02;6.97;;;;;;;0.06;57.49;101327.25;5010326;28;20049;-70
2022/03/11 07:20:03;;;;;;;11.02;6.93;;;;;;;0.31;56.73;101302.34;5011311;28;20037;-70
2022/03/11 07:22:30;;;;;;;13.75;8.55;;;;;;;2.16;55.42;101349.06;5011171;28;20423;-69
2022/03/11 07:24:55;;;;;;;13.35;7.68;;;;;;;1.58;54.08;101309.81;5011065;28;20030;-71
2022/03/11 07:27:22;;;;;;;9.75;6.63;;;;;;;0.63;53.96;101313.41;5010909;28;20030;-69
2022/03/11 07:29:48;;;;;;;9.52;5.88;;;;;;;0.43;54.60;101336.91;5019095;28;20045;-70
2022/03/11 07:32:16;;;;;;;10.15;6.45;;;;;;;-0.03;54.95;101345.28;5031135;28;20034;-70
2022/03/11 07:34:41;;;;;;;11.93;6.40;;;;;;;-0.14;54.38;101316.53;5031112;28;20029;-70
2022/03/11 07:37:11;;;;;;;10.40;6.53;;;;;;;1.29;54.19;101345.63;5030429;28;20021;-70
2022/03/11 07:39:40;;;;;;;14.68;8.80;;;;;;;1.38;54.04;101340.06;5030699;28;20033;-70
2022/03/11 07:42:06;;;;;;;11.15;6.60;;;;;;;0.61;52.25;101318.38;5030652;28;20057;-70
2022/03/11 07:44:33;;;;;;;10.23;5.60;;;;;;;0.09;52.20;101324.88;5031021;28;20410;-71
2022/03/11 07:46:58;;;;;;;9.18;5.18;;;;;;;0.51;51.89;101311.38;5028128;28;20064;-70
2022/03/11 07:49:24;;;;;;;10.00;5.95;;;;;;;0.43;51.70;101346.91;5030888;28;20116;-70
2022/03/11 07:51:50;;;;;;;9.48;5.72;;;;;;;2.37;50.88;101330.44;5013146;28;20029;-69
2022/03/11 07:54:15;;;;;;;11.57;6.88;;;;;;;0.91;51.68;101318.53;5030438;28;20484;-69
2022/03/11 07:56:41;;;;;;;9.15;5.45;;;;;;;0.93;49.68;101336.97;5039582;28;20033;-69
2022/03/11 07:59:06;;;;;;;11.55;5.65;;;;;;;0.83;49.57;101304.91;5032365;28;20033;-70
2022/03/11 08:01:33;;;;;;;8.77;4.90;;;;;;;0.64;49.26;101312.59;5047318;28;20033;-68
2022/03/11 08:03:58;;;;;;;9.13;5.35;;;;;;;0.83;49.13;101334.94;5030779;28;20125;-71
2022/03/11 08:06:24;;;;;;;8.60;5.20;;;;;;;0.90;48.22;101296.78;5039021;28;20498;-70
2022/03/11 08:08:49;;;;;;;7.93;5.28;;;;;;;1.06;48.30;101316.50;5050328;28;20212;-71
2022/03/11 08:11:15;;;;;;;8.05;4.90;;;;;;;1.69;47.73;101322.63;5050551;28;20028;-71
2022/03/11 08:13:41;;;;;;;8.00;4.95;;;;;;;1.20;47.21;101332.81;5050433;28;20479;-75
2022/03/11 08:16:07;;;;;;;7.00;4.68;;;;;;;1.37;46.36;101326.66;5027436;28;20037;-71
2022/03/11 08:18:33;;;;;;;12.05;5.43;;;;;;;1.62;45.40;101331.59;5050794;28;20094;-70
2022/03/11 08:20:59;;;;;;;11.23;5.30;;;;;;;0.69;45.04;101336.13;5032702;28;20734;-70
2022/03/11 08:23:24;;;;;;;7.47;4.47;;;;;;;0.78;45.90;101311.41;5032952;28;20032;-73
2022/03/11 08:25:50;;;;;;;7.70;4.40;;;;;;;1.00;46.25;101318.81;5048565;28;20024;-66
2022/03/11 08:28:16;;;;;;;8.35;4.32;;;;;;;1.07;45.43;101304.84;5024141;28;20487;-69
2022/03/11 08:30:43;;;;;;;6.45;4.32;;;;;;;1.19;44.84;101306.06;5007638;28;20075;-67
2022/03/11 08:33:13;;;;;;;9.23;5.57;;;;;;;1.31;45.11;101323.13;5044798;28;20057;-69
2022/03/11 08:35:39;;;;;;;7.25;4.47;;;;;;;2.22;45.62;101284.03;5054278;28;20065;-70
2022/03/11 08:38:06;;;;;;;8.15;4.53;;;;;;;1.05;44.27;101286.44;5054232;28;20044;-72
2022/03/11 08:40:32;;;;;;;7.18;4.68;;;;;;;1.91;44.63;101312.41;5035656;28;20107;-71
2022/03/11 08:42:58;;;;;;;11.77;4.70;;;;;;;2.09;43.15;101297.88;5053924;28;20033;-73
2022/03/11 08:45:24;;;;;;;7.05;4.75;;;;;;;2.37;43.26;101302.84;5036314;28;20572;-70
2022/03/11 08:47:50;;;;;;;9.43;4.63;;;;;;;1.45;44.66;101302.72;5054035;28;20029;-73
2022/03/11 08:50:16;;;;;;;10.32;5.22;;;;;;;3.33;43.66;101293.44;5053795;28;20025;-69
2022/03/11 08:52:42;;;;;;;7.78;4.70;;;;;;;2.32;43.43;101293.47;5018680;28;20038;-74
2022/03/11 08:55:08;;;;;;;9.32;5.95;;;;;;;2.95;42.89;101262.44;5033182;28;20049;-74
2022/03/11 08:57:35;;;;;;;12.73;8.20;;;;;;;2.92;43.41;101282.47;4675574;28;9999895;-73
2022/03/11 09:00:04;;;;;;;8.40;5.22;;;;;;;3.27;43.16;101253.09;5029864;28;20033;-70
2022/03/11 09:02:29;;;;;;;8.27;4.75;;;;;;;2.12;42.49;101282.91;5030421;28;20156;-73
2022/03/11 09:04:55;;;;;;;7.95;4.97;;;;;;;2.26;43.68;101259.03;5026193;28;20033;-74
2022/03/11 09:07:20;;;;;;;5.90;4.03;;;;;;;2.38;42.01;101279.44;5012906;28;20030;-75
2022/03/11 09:09:46;;;;;;;6.93;4.47;;;;;;;2.77;42.09;101261.16;5023133;28;20068;-71
2022/03/11 09:12:11;;;;;;;8.48;4.93;;;;;;;2.32;42.52;101253.31;5018018;28;20042;-69
2022/03/11 09:14:38;;;;;;;12.20;7.38;;;;;;;1.97;43.00;101249.03;5025196;28;20061;-70
2022/03/11 09:17:03;;;;;;;9.23;5.57;;;;;;;1.86;43.37;101256.31;5029879;28;20499;-70
2022/03/11 09:19:29;;;;;;;8.85;5.53;;;;;;;2.83;42.89;101256.28;5023656;28;20029;-69
2022/03/11 09:21:54;;;;;;;10.65;5.32;;;;;;;2.82;43.23;101240.38;5014733;28;20038;-72
2022/03/11 09:24:20;;;;;;;8.23;5.68;;;;;;;2.59;41.55;101264.09;5010497;28;20022;-74
2022/03/11 09:26:45;;;;;;;10.23;5.90;;;;;;;3.18;41.64;101245.38;5010700;28;20675;-72
2022/03/11 09:29:11;;;;;;;10.80;5.70;;;;;;;2.97;42.08;101273.34;5009616;28;20053;-72
2022/03/11 09:31:37;;;;;;;15.88;8.02;;;;;;;3.56;41.53;101268.81;4993573;28;20037;-74
2022/03/11 09:34:03;;;;;;;20.85;10.43;;;;;;;3.01;41.45;101267.59;5010381;28;20026;-73
2022/03/11 09:36:28;;;;;;;8.40;5.00;;;;;;;3.36;42.53;101258.34;5010284;28;20103;-75
2022/03/11 09:38:53;;;;;;;7.07;4.47;;;;;;;2.76;40.89;101272.00;4992952;28;20033;-73
2022/03/11 09:41:20;;;;;;;10.40;4.80;;;;;;;3.53;41.40;101247.84;5009544;28;20034;-73
2022/03/11 09:43:46;;;;;;;7.15;4.85;;;;;;;4.40;39.60;101247.81;5019075;28;20113;-75
2022/03/11 09:46:14;;;;;;;12.48;6.32;;;;;;;4.15;41.20;101254.09;5009273;28;20496;-69
2022/03/11 09:48:43;;;;;;;8.85;5.30;;;;;;;3.05;43.31;101236.72;5009737;28;20492;-70
2022/03/11 09:51:11;;;;;;;6.97;4.78;;;;;;;3.32;43.50;101242.38;5017340;28;20041;-72
2022/03/11 09:53:37;;;;;;;9.38;5.00;;;;;;;3.67;41.91;101233.03;4992139;28;20491;-70
2022/03/11 09:56:03;;;;;;;16.08;7.25;;;;;;;4.15;41.42;101258.28;5016942;28;20521;-72
2022/03/11 09:58:29;;;;;;;8.73;4.82;;;;;;;2.65;42.65;101264.22;5040528;28;20044;-71
2022/03/11 10:00:55;;;;;;;7.30;4.90;;;;;;;3.78;40.17;101254.22;5049275;28;20037;-69
2022/03/11 10:03:21;;;;;;;10.73;6.05;;;;;;;3.74;42.31;101260.00;5065182;28;20048;-72
2022/03/11 10:05:51;;;;;;;20.25;8.23;;;;;;;3.86;44.79;101211.63;5059910;28;20040;-76
2022/03/11 10:08:31;;;;;;;15.02;8.35;;;;;;;5.42;42.38;101237.63;5061468;28;20538;-75
2022/03/11 10:11:16;;;;;;;8.52;5.30;;;;;;;3.60;41.95;101247.97;5053399;28;20116;-64
2022/03/11 10:13:41;;;;;;;6.60;4.72;;;;;;;4.65;37.47;101214.69;5050373;28;20033;-73
2022/03/11 10:16:25;;;;;;;7.72;5.20;;;;;;;3.34;39.50;101245.75;5051018;28;20529;-71
2022/03/11 10:19:10;;;;;;;17.90;7.43;;;;;;;4.84;39.04;101241.84;5051188;28;20127;-74
2022/03/11 10:21:46;;;;;;;11.15;5.57;;;;;;;3.62;38.06;101206.09;5050997;28;20028;-72
2022/03/11 10:24:13;;;;;;;21.55;8.05;;;;;;;4.69;37.80;101235.72;5051020;28;20036;-73
2022/03/11 10:26:47;;;;;;;7.85;4.75;;;;;;;4.12;36.97;101201.19;5051227;28;20048;-73
2022/03/11 10:29:34;;;;;;;7.72;4.70;;;;;;;5.34;37.46;101234.16;5051531;28;20028;-75
2022/03/11 10:32:00;;;;;;;7.82;4.32;;;;;;;3.58;38.00;101232.00;5051515;28;20418;-73
2022/03/11 10:34:32;;;;;;;6.88;4.55;;;;;;;3.33;38.63;101235.66;5051857;28;20028;-74
2022/03/11 10:37:04;;;;;;;6.40;4.55;;;;;;;4.52;38.28;101195.16;5052337;28;20052;-75
2022/03/11 10:39:32;;;;;;;6.05;4.30;;;;;;;3.96;37.83;101173.25;5051635;28;20027;-75
2022/03/11 10:42:00;;;;;;;6.65;4.10;;;;;;;4.87;36.81;101214.19;5052181;28;20083;-73
2022/03/11 10:44:28;;;;;;;7.88;5.10;;;;;;;4.81;37.50;101186.41;5052697;28;20434;-75
2022/03/11 10:46:54;;;;;;;7.97;4.38;;;;;;;3.91;38.61;101220.09;5052214;28;20025;-75
2022/03/11 10:49:33;;;;;;;7.22;4.40;;;;;;;4.28;38.53;101184.69;5052447;28;20092;-75
2022/03/11 10:52:02;;;;;;;65.72;40.30;;;;;;;4.26;38.76;101177.13;5051946;28;20029;-75
2022/03/11 10:54:29;;;;;;;11.30;7.75;;;;;;;3.29;38.77;101186.16;5052019;28;20021;-74
2022/03/11 10:56:57;;;;;;;7.53;5.40;;;;;;;3.82;38.71;101159.56;5052170;28;20052;-72
2022/03/11 10:59:25;;;;;;;7.40;4.82;;;;;;;4.73;37.77;101203.06;5052132;28;20025;-73
2022/03/11 11:01:52;;;;;;;7.53;5.90;;;;;;;3.26;39.24;101188.63;5048789;28;20053;-74
2022/03/11 11:04:19;;;;;;;7.00;4.85;;;;;;;2.93;37.85;101157.78;5032276;28;20148;-73
2022/03/11 11:06:45;;;;;;;6.63;4.25;;;;;;;3.21;39.52;101208.59;5032445;28;20057;-74
2022/03/11 11:09:12;;;;;;;6.80;4.90;;;;;;;3.75;38.15;101195.47;5031928;28;20036;-73
2022/03/11 11:11:39;;;;;;;10.02;5.55;;;;;;;4.48;40.17;101183.34;5032095;28;20025;-74
2022/03/11 11:14:07;;;;;;;8.15;5.40;;;;;;;4.65;39.54;101206.28;5032084;28;20038;-72
2022/03/11 11:16:41;;;;;;;9.35;5.90;;;;;;;4.58;38.18;101201.97;5031772;28;20034;-74
2022/03/11 11:19:10;;;;;;;8.05;5.32;;;;;;;5.06;37.40;101193.47;5031955;28;20032;-74